Time;durP1;ratioP1;P1;durP2;ratioP2;P2;SDS_P1;SDS_P2;PMS_P1;PMS_P2;Temp;Humidity;BMP_temperature;BMP_pressure;BME280_temperature;BME280_humidity;BME280_pressure;Samples;Min_cycle;Max_cycle;Signal;HPM_P1;HPM_P2
2024/04/22 00:02:11;;;;;;;5.33;2.97;;;3.60;99.90;;;;;;5415590;26;19996;-46
2024/04/22 00:04:37;;;;;;;7.03;3.20;;;3.60;99.90;;;;;;5415384;26;20069;-45
2024/04/22 00:07:04;;;;;;;6.47;3.37;;;3.60;99.90;;;;;;5415807;26;19996;-48
2024/04/22 00:09:30;;;;;;;8.03;3.20;;;3.60;99.90;;;;;;5414378;26;20057;-45
2024/04/22 00:11:56;;;;;;;8.43;3.40;;;3.60;99.90;;;;;;5413708;26;20414;-47
2024/04/22 00:14:22;;;;;;;6.30;3.10;;;3.60;99.90;;;;;;5415551;26;20007;-45
2024/04/22 00:16:48;;;;;;;6.63;2.83;;;3.60;99.90;;;;;;5415453;26;19992;-45
2024/04/22 00:19:14;;;;;;;7.23;3.17;;;3.60;99.90;;;;;;5414787;26;20068;-46
2024/04/22 00:21:40;;;;;;;5.60;2.60;;;3.60;99.90;;;;;;5415408;26;20445;-45
2024/04/22 00:24:07;;;;;;;6.80;3.20;;;3.60;99.90;;;;;;5415295;26;20057;-45
2024/04/22 00:26:33;;;;;;;5.10;2.70;;;3.60;99.90;;;;;;5415716;26;20023;-45
2024/04/22 00:28:59;;;;;;;8.00;3.40;;;3.60;99.90;;;;;;5413285;26;20061;-46
2024/04/22 00:31:25;;;;;;;7.17;3.13;;;3.60;99.90;;;;;;5416398;26;20440;-46
2024/04/22 00:33:54;;;;;;;6.73;3.13;;;3.60;99.90;;;;;;5385940;26;19996;-45
2024/04/22 00:36:20;;;;;;;8.25;3.40;;;3.60;99.90;;;;;;5385385;26;19996;-46
2024/04/22 00:38:47;;;;;;;5.93;3.27;;;3.60;99.90;;;;;;5415513;26;19992;-45
2024/04/22 00:41:13;;;;;;;5.47;3.17;;;3.60;99.90;;;;;;5416012;26;20492;-45
2024/04/22 00:43:39;;;;;;;7.27;3.33;;;3.60;99.90;;;;;;5415709;26;19991;-46
2024/04/22 00:46:06;;;;;;;5.77;3.17;;;3.50;99.90;;;;;;5418513;26;20390;-47
2024/04/22 00:48:34;;;;;;;7.33;3.13;;;3.50;99.90;;;;;;5385881;26;19991;-46
2024/04/22 00:51:00;;;;;;;8.03;3.10;;;3.50;99.90;;;;;;5418043;26;20329;-47
2024/04/22 00:53:27;;;;;;;6.20;3.10;;;3.50;99.90;;;;;;5418090;26;19992;-47
2024/04/22 00:55:55;;;;;;;5.97;3.30;;;3.40;99.90;;;;;;5418059;26;20064;-49
2024/04/22 00:58:22;;;;;;;7.10;3.13;;;3.40;99.90;;;;;;5418080;26;20068;-47
2024/04/22 01:00:49;;;;;;;6.87;3.53;;;3.40;99.90;;;;;;5417167;26;20341;-46
2024/04/22 01:03:16;;;;;;;6.70;3.03;;;3.40;99.90;;;;;;5417958;26;19995;-50
2024/04/22 01:05:42;;;;;;;6.90;3.43;;;3.40;99.90;;;;;;5417685;26;20076;-46
2024/04/22 01:08:08;;;;;;;8.03;3.83;;;3.40;99.90;;;;;;5418007;26;20069;-49
2024/04/22 01:10:34;;;;;;;11.40;4.03;;;3.40;99.90;;;;;;5417209;26;19995;-46
2024/04/22 01:13:01;;;;;;;6.37;3.40;;;3.40;99.90;;;;;;5418081;26;19995;-46
2024/04/22 01:15:27;;;;;;;7.20;3.97;;;3.40;99.90;;;;;;5417879;26;20061;-49
2024/04/22 01:17:53;;;;;;;9.87;3.70;;;3.40;99.90;;;;;;5417800;26;20072;-48
2024/04/22 01:20:19;;;;;;;7.07;3.73;;;3.40;99.90;;;;;;5416875;26;20003;-47
2024/04/22 01:22:45;;;;;;;6.93;3.70;;;3.30;99.90;;;;;;5385362;26;20003;-52
2024/04/22 01:25:11;;;;;;;8.07;3.60;;;3.20;99.90;;;;;;5417755;26;20038;-49
2024/04/22 01:27:38;;;;;;;7.87;3.57;;;3.20;99.90;;;;;;5417620;26;19992;-49
2024/04/22 01:30:06;;;;;;;6.83;3.53;;;3.20;99.90;;;;;;5416921;26;20326;-48
2024/04/22 01:32:32;;;;;;;7.13;3.70;;;3.10;99.90;;;;;;5417649;26;20062;-47
2024/04/22 01:35:00;;;;;;;8.27;4.40;;;3.00;99.90;;;;;;5417428;26;19991;-47
2024/04/22 01:37:27;;;;;;;8.87;3.80;;;3.00;99.90;;;;;;5385274;26;20061;-49
2024/04/22 01:39:53;;;;;;;9.20;3.93;;;3.00;99.90;;;;;;5416904;26;20008;-50
2024/04/22 01:42:19;;;;;;;7.97;3.57;;;3.00;99.90;;;;;;5417650;26;19995;-50
2024/04/22 01:44:45;;;;;;;10.27;4.53;;;3.10;99.90;;;;;;5417267;26;20042;-49
2024/04/22 01:47:11;;;;;;;7.13;4.03;;;3.10;99.90;;;;;;5417421;26;19996;-49
2024/04/22 01:49:37;;;;;;;7.00;3.83;;;3.10;99.90;;;;;;5414800;26;20386;-49
2024/04/22 01:52:03;;;;;;;9.63;3.90;;;3.10;99.90;;;;;;5417943;26;19991;-47
2024/04/22 01:54:29;;;;;;;7.13;3.87;;;3.10;99.90;;;;;;5417466;26;19992;-47
2024/04/22 01:56:56;;;;;;;7.93;4.17;;;3.10;99.90;;;;;;5416444;26;20064;-47
2024/04/22 01:59:22;;;;;;;9.13;4.17;;;3.10;99.90;;;;;;5416573;26;20003;-49
2024/04/22 02:01:48;;;;;;;7.33;4.00;;;3.10;99.90;;;;;;5416026;26;19996;-49
2024/04/22 02:04:15;;;;;;;7.07;3.97;;;3.10;99.90;;;;;;5417097;26;19995;-48
2024/04/22 02:06:41;;;;;;;10.23;4.33;;;3.20;99.90;;;;;;5417362;26;19992;-48
2024/04/22 02:09:07;;;;;;;9.63;4.63;;;3.10;99.90;;;;;;5416456;26;19992;-49
2024/04/22 02:11:33;;;;;;;7.63;4.40;;;3.20;99.90;;;;;;5417165;26;19991;-48
2024/04/22 02:13:59;;;;;;;9.27;4.50;;;3.20;99.90;;;;;;5416893;26;20038;-48
2024/04/22 02:16:25;;;;;;;11.50;4.43;;;3.30;99.90;;;;;;5416866;26;19992;-49
2024/04/22 02:18:55;;;;;;;10.03;4.83;;;3.30;99.90;;;;;;5415050;26;20088;-50
2024/04/22 02:21:28;;;;;;;;;;;3.30;99.90;;;;;;5417548;26;19996;-50
2024/04/22 02:23:55;;;;;;;8.43;4.73;;;3.30;99.90;;;;;;5416847;26;20307;-50
2024/04/22 02:26:21;;;;;;;8.27;4.87;;;3.20;99.90;;;;;;5417141;26;20080;-50
2024/04/22 02:28:49;;;;;;;8.93;4.63;;;3.30;99.90;;;;;;5415951;26;19996;-49
2024/04/22 02:31:16;;;;;;;10.27;4.93;;;3.30;99.90;;;;;;5416654;26;20051;-48
2024/04/22 02:33:42;;;;;;;10.13;4.60;;;3.30;99.90;;;;;;5416935;26;19996;-49
2024/04/22 02:36:08;;;;;;;11.77;5.10;;;3.30;99.90;;;;;;5417022;26;20448;-50
2024/04/22 02:38:34;;;;;;;11.00;5.53;;;3.30;99.90;;;;;;5415932;26;20068;-51
2024/04/22 02:41:01;;;;;;;10.23;5.50;;;3.30;99.90;;;;;;5416688;26;20007;-49
2024/04/22 02:43:27;;;;;;;10.33;5.43;;;3.30;99.90;;;;;;5416677;26;20432;-49
2024/04/22 02:45:53;;;;;;;11.33;5.37;;;3.30;99.90;;;;;;5416567;26;19995;-48
2024/04/22 02:48:19;;;;;;;9.33;4.67;;;3.40;99.90;;;;;;5416547;26;20069;-50
2024/04/22 02:50:45;;;;;;;9.80;5.30;;;3.40;99.90;;;;;;5414649;26;19991;-49
2024/04/22 02:53:11;;;;;;;9.50;5.13;;;3.40;99.90;;;;;;5416525;26;20068;-50
2024/04/22 02:55:37;;;;;;;10.10;5.73;;;3.50;99.90;;;;;;5416483;26;20007;-48
2024/04/22 02:58:03;;;;;;;9.17;5.40;;;3.50;99.90;;;;;;5416448;26;19992;-49
2024/04/22 03:00:29;;;;;;;11.27;5.40;;;3.50;99.90;;;;;;5415683;26;20004;-48
2024/04/22 03:02:55;;;;;;;11.60;5.73;;;3.50;99.90;;;;;;5415337;26;19991;-48
2024/04/22 03:05:21;;;;;;;12.13;6.07;;;3.50;99.90;;;;;;5385260;26;19992;-47
2024/04/22 03:07:47;;;;;;;10.63;5.60;;;3.50;99.90;;;;;;5414983;26;19991;-47
2024/04/22 03:10:13;;;;;;;11.80;6.17;;;3.50;99.90;;;;;;5415730;26;20038;-49
2024/04/22 03:12:39;;;;;;;13.47;6.10;;;3.60;99.90;;;;;;5415349;26;20038;-50
2024/04/22 03:15:05;;;;;;;9.73;5.63;;;3.60;99.90;;;;;;5416078;26;20020;-49
2024/04/22 03:17:31;;;;;;;14.07;7.40;;;3.60;99.90;;;;;;5416024;26;20064;-47
2024/04/22 03:19:57;;;;;;;13.60;6.97;;;3.60;99.90;;;;;;5415124;26;19992;-50
2024/04/22 03:22:23;;;;;;;11.37;6.20;;;3.60;99.90;;;;;;5416371;26;20003;-45
2024/04/22 03:24:50;;;;;;;11.57;5.60;;;3.60;99.90;;;;;;5416040;26;20065;-47
2024/04/22 03:27:16;;;;;;;11.50;5.67;;;3.50;99.90;;;;;;5415982;26;20064;-47
2024/04/22 03:29:42;;;;;;;8.57;5.30;;;3.50;99.90;;;;;;5415369;26;19991;-46
2024/04/22 03:32:08;;;;;;;10.47;5.83;;;3.50;99.90;;;;;;5415880;26;20046;-45
2024/04/22 03:34:34;;;;;;;11.43;6.00;;;3.50;99.90;;;;;;5415265;26;20068;-45
2024/04/22 03:37:00;;;;;;;10.80;6.00;;;3.50;99.90;;;;;;5415802;26;19995;-45
2024/04/22 03:39:26;;;;;;;12.90;6.33;;;3.50;99.90;;;;;;5414206;26;20069;-46
2024/04/22 03:41:52;;;;;;;12.63;6.37;;;3.50;99.90;;;;;;5415743;26;20068;-46
2024/04/22 03:44:18;;;;;;;9.33;5.77;;;3.60;99.90;;;;;;5414959;26;19995;-47
2024/04/22 03:52:13;;;;;;;11.33;6.07;;;3.70;99.90;;;;;;5415703;26;19995;-50
2024/04/22 03:54:39;;;;;;;11.80;5.70;;;3.70;99.90;;;;;;5415534;26;19995;-50
2024/04/22 03:57:05;;;;;;;10.53;5.93;;;3.70;99.90;;;;;;5415485;26;20068;-47
2024/04/22 03:59:31;;;;;;;10.43;5.67;;;3.60;99.90;;;;;;5414794;26;19999;-46
2024/04/22 04:01:57;;;;;;;11.60;5.57;;;3.60;99.90;;;;;;5414451;26;20065;-47
2024/04/22 04:04:23;;;;;;;11.07;6.27;;;3.60;99.90;;;;;;5415464;26;19992;-47
2024/04/22 04:06:49;;;;;;;10.37;5.97;;;3.60;99.90;;;;;;5415394;26;19991;-45
2024/04/22 04:09:15;;;;;;;10.27;5.47;;;3.60;99.90;;;;;;5414983;26;19988;-48
2024/04/22 04:11:41;;;;;;;10.67;5.97;;;3.50;99.90;;;;;;5415439;26;20513;-45
2024/04/22 04:14:08;;;;;;;12.07;5.67;;;3.50;99.90;;;;;;5415657;26;19992;-47
2024/04/22 04:16:34;;;;;;;9.87;5.47;;;3.40;99.90;;;;;;5415434;26;19991;-50
2024/04/22 04:19:00;;;;;;;10.17;6.00;;;3.40;99.90;;;;;;5415102;26;19987;-50
2024/04/22 04:21:26;;;;;;;11.00;5.77;;;3.50;99.90;;;;;;5418714;26;20086;-47
2024/04/22 04:23:52;;;;;;;10.57;5.37;;;3.50;99.90;;;;;;5418988;26;19991;-49
2024/04/22 04:26:19;;;;;;;10.53;5.60;;;3.40;99.90;;;;;;5418742;26;20049;-49
2024/04/22 04:28:49;;;;;;;10.60;5.93;;;3.40;99.90;;;;;;5417864;26;20064;-48
2024/04/22 04:31:15;;;;;;;10.68;5.72;;;3.40;99.90;;;;;;5418408;26;20116;-50
2024/04/22 04:33:41;;;;;;;11.60;6.20;;;3.40;99.90;;;;;;5418594;26;20525;-47
2024/04/22 04:36:08;;;;;;;12.90;6.40;;;3.40;99.90;;;;;;5418486;26;19995;-48
2024/04/22 04:38:35;;;;;;;12.27;6.17;;;3.30;99.90;;;;;;5417752;26;20084;-46
2024/04/22 04:41:01;;;;;;;10.40;6.10;;;3.30;99.90;;;;;;5418278;26;20063;-50
2024/04/22 04:43:28;;;;;;;12.20;5.97;;;3.30;99.90;;;;;;5385490;26;19992;-46
2024/04/22 04:45:54;;;;;;;11.93;6.20;;;3.30;99.90;;;;;;5418250;26;19996;-50
2024/04/22 04:48:21;;;;;;;9.37;5.60;;;3.30;99.90;;;;;;5418159;26;19995;-47
2024/04/22 04:50:47;;;;;;;12.23;5.70;;;3.30;99.90;;;;;;5417032;26;19991;-50
2024/04/22 04:53:14;;;;;;;11.07;5.97;;;3.30;99.90;;;;;;5418174;26;20072;-46
2024/04/22 04:55:41;;;;;;;13.07;6.40;;;3.30;99.90;;;;;;5418857;26;20437;-50
2024/04/22 04:58:07;;;;;;;12.20;6.40;;;3.30;99.90;;;;;;5418107;26;20020;-49
2024/04/22 05:00:34;;;;;;;9.20;5.77;;;3.30;99.90;;;;;;5416999;26;19995;-50
2024/04/22 05:03:00;;;;;;;12.47;6.00;;;3.40;99.90;;;;;;5418069;26;20068;-47
2024/04/22 05:05:26;;;;;;;11.23;6.30;;;3.30;99.90;;;;;;5417887;26;19996;-50
2024/04/22 05:07:54;;;;;;;13.07;6.47;;;3.40;99.90;;;;;;5418234;26;20325;-49
2024/04/22 05:10:20;;;;;;;10.47;6.00;;;3.40;99.90;;;;;;5416860;26;20344;-50
2024/04/22 05:12:48;;;;;;;11.30;6.50;;;3.30;99.90;;;;;;5418052;26;19991;-47
2024/04/22 05:15:14;;;;;;;12.83;6.33;;;3.30;99.90;;;;;;5418353;26;20436;-46
2024/04/22 05:17:40;;;;;;;12.60;6.23;;;3.30;99.90;;;;;;5416600;26;19996;-47
2024/04/22 05:20:07;;;;;;;13.67;6.50;;;3.30;99.90;;;;;;5385629;26;19995;-49
2024/04/22 05:22:33;;;;;;;12.73;6.23;;;3.40;99.90;;;;;;5416126;26;19996;-52
2024/04/22 05:24:59;;;;;;;11.63;6.43;;;3.50;99.90;;;;;;5416688;26;19996;-50
2024/04/22 05:27:25;;;;;;;11.40;6.40;;;3.50;99.90;;;;;;5418061;26;19995;-48
2024/04/22 05:29:51;;;;;;;11.87;6.57;;;3.60;99.90;;;;;;5417054;26;19996;-48
2024/04/22 05:32:19;;;;;;;13.53;7.20;;;3.60;99.90;;;;;;5416624;26;20072;-53
2024/04/22 05:37:30;;;;;;;12.10;6.10;;;3.80;99.90;;;;;;5417890;26;20028;-52
2024/04/22 05:39:56;;;;;;;13.33;6.57;;;3.90;99.90;;;;;;5415260;26;20394;-46
2024/04/22 05:42:22;;;;;;;17.00;6.20;;;3.90;99.90;;;;;;5417697;26;19996;-47
2024/04/22 05:44:48;;;;;;;14.90;6.30;;;4.00;99.90;;;;;;5417296;26;19995;-49
2024/04/22 05:47:14;;;;;;;11.70;6.33;;;4.00;99.90;;;;;;5417479;26;20066;-49
2024/04/22 05:49:40;;;;;;;12.10;6.63;;;4.10;99.90;;;;;;5416628;26;19991;-50
2024/04/22 05:52:07;;;;;;;12.53;6.67;;;4.10;99.90;;;;;;5417348;26;20064;-50
2024/04/22 05:54:33;;;;;;;11.67;6.40;;;4.20;99.90;;;;;;5417404;26;20003;-50
2024/04/22 05:56:59;;;;;;;13.03;6.73;;;4.20;99.90;;;;;;5417374;26;20513;-47
2024/04/22 05:59:25;;;;;;;12.73;6.27;;;4.30;99.90;;;;;;5416743;26;19992;-49
2024/04/22 06:01:51;;;;;;;13.53;6.07;;;4.30;99.90;;;;;;5416997;26;19991;-49
2024/04/22 06:04:17;;;;;;;9.63;6.10;;;4.40;99.90;;;;;;5417211;26;20003;-50
2024/04/22 06:06:44;;;;;;;12.47;6.37;;;4.50;99.90;;;;;;5417096;26;20002;-51
2024/04/22 06:09:10;;;;;;;11.27;6.10;;;4.60;99.90;;;;;;5416140;26;19992;-50
2024/04/22 06:11:37;;;;;;;11.63;6.20;;;4.70;99.90;;;;;;5415426;26;20480;-51
2024/04/22 06:14:03;;;;;;;11.00;6.17;;;4.80;99.90;;;;;;5415927;26;20064;-51
2024/04/22 06:16:29;;;;;;;13.63;6.40;;;5.00;99.90;;;;;;5416962;26;19992;-50
2024/04/22 06:18:55;;;;;;;11.57;6.80;;;5.10;99.90;;;;;;5416465;26;20064;-50
2024/04/22 06:21:22;;;;;;;13.03;6.60;;;5.20;99.90;;;;;;5417061;26;19992;-49
2024/04/22 06:23:49;;;;;;;14.43;6.80;;;5.30;99.90;;;;;;5416783;26;20321;-48
2024/04/22 06:26:15;;;;;;;13.23;6.97;;;5.50;99.90;;;;;;5416863;26;20003;-50
2024/04/22 06:28:41;;;;;;;12.50;6.63;;;5.60;99.90;;;;;;5415977;26;20336;-48
2024/04/22 06:31:07;;;;;;;13.63;6.77;;;5.70;99.90;;;;;;5417197;26;20068;-51
2024/04/22 06:33:36;;;;;;;11.23;6.63;;;5.90;99.90;;;;;;5417135;26;20007;-47
2024/04/22 06:36:02;;;;;;;13.50;6.82;;;6.10;99.90;;;;;;5416884;26;20023;-47
2024/04/22 06:38:30;;;;;;;13.87;6.40;;;6.30;99.90;;;;;;5415833;26;19991;-50
2024/04/22 06:40:57;;;;;;;15.33;6.03;;;6.50;99.90;;;;;;5416661;26;20037;-52
2024/04/22 06:43:23;;;;;;;10.67;6.03;;;6.80;99.90;;;;;;5416633;26;19992;-52
2024/04/22 06:45:49;;;;;;;10.47;6.00;;;7.00;99.90;;;;;;5416730;26;19996;-51
2024/04/22 06:48:15;;;;;;;10.30;5.27;;;7.20;99.90;;;;;;5416707;26;20003;-52
2024/04/22 06:50:45;;;;;;;10.03;5.17;;;7.40;99.90;;;;;;5415823;26;19991;-51
2024/04/22 06:53:11;;;;;;;12.40;5.77;;;7.50;99.90;;;;;;5416527;26;20275;-47
2024/04/22 06:55:38;;;;;;;9.47;4.77;;;7.80;99.90;;;;;;5416515;26;20394;-48
2024/04/22 06:58:04;;;;;;;9.43;5.00;;;8.00;99.90;;;;;;5416522;26;20309;-52
2024/04/22 07:00:30;;;;;;;8.07;4.70;;;8.10;99.90;;;;;;5414856;26;19987;-48
2024/04/22 07:02:56;;;;;;;8.07;4.00;;;8.40;99.90;;;;;;5416894;26;20007;-51
2024/04/22 07:05:22;;;;;;;7.50;4.20;;;8.40;99.90;;;;;;5416531;26;19987;-50
2024/04/22 07:07:48;;;;;;;8.23;4.00;;;8.50;99.90;;;;;;5416799;26;20337;-48
2024/04/22 07:10:14;;;;;;;9.23;4.20;;;8.50;99.90;;;;;;5415232;26;19992;-52
2024/04/22 07:12:42;;;;;;;6.70;3.80;;;8.50;99.90;;;;;;5416542;26;19995;-50
2024/04/22 07:15:08;;;;;;;6.20;3.73;;;8.50;99.90;;;;;;5416285;26;20007;-51
2024/04/22 07:17:34;;;;;;;5.60;3.40;;;8.50;99.90;;;;;;5414434;26;19995;-49
2024/04/22 07:20:00;;;;;;;8.17;4.03;;;8.60;99.90;;;;;;5415250;26;20003;-50
2024/04/22 07:22:28;;;;;;;6.97;3.40;;;8.70;99.90;;;;;;5416055;26;20092;-49
2024/04/22 07:24:55;;;;;;;7.87;3.80;;;8.70;99.90;;;;;;5415952;26;20002;-50
2024/04/22 07:27:22;;;;;;;5.57;3.20;;;8.80;99.90;;;;;;5416111;26;19992;-50
2024/04/22 07:29:48;;;;;;;6.87;3.50;;;8.80;99.90;;;;;;5415246;26;20491;-48
2024/04/22 07:32:14;;;;;;;5.50;3.27;;;9.00;99.90;;;;;;5415865;26;20068;-49
2024/04/22 07:34:42;;;;;;;5.57;3.03;;;9.10;99.90;;;;;;5415781;26;20069;-48
2024/04/22 07:37:20;;;;;;;6.83;3.20;;;9.10;99.90;;;;;;5415667;26;20002;-48
2024/04/22 07:39:47;;;;;;;6.30;3.40;;;9.10;99.90;;;;;;5415185;26;19999;-48
2024/04/22 07:42:13;;;;;;;7.20;3.70;;;9.20;99.90;;;;;;5384870;26;19996;-50
2024/04/22 07:44:39;;;;;;;7.43;3.50;;;9.40;99.90;;;;;;5415675;26;19996;-49
2024/04/22 07:47:05;;;;;;;8.93;3.20;;;9.70;99.90;;;;;;5415781;26;20322;-49
2024/04/22 07:49:31;;;;;;;5.00;2.83;;;9.80;99.90;;;;;;5414988;26;19995;-50
2024/04/22 07:51:58;;;;;;;5.13;2.77;;;9.80;99.90;;;;;;5415404;26;20509;-50
2024/04/22 07:54:24;;;;;;;5.73;3.40;;;9.90;99.90;;;;;;5414656;26;19999;-50
2024/04/22 07:56:50;;;;;;;6.37;3.43;;;9.80;99.90;;;;;;5413747;26;19996;-49
2024/04/22 07:59:18;;;;;;;6.90;3.40;;;9.70;99.90;;;;;;5413168;26;19996;-50
2024/04/22 08:01:45;;;;;;;7.93;3.50;;;9.50;99.90;;;;;;5415428;26;19996;-50
2024/04/22 08:04:11;;;;;;;6.23;3.27;;;9.30;99.90;;;;;;5415320;26;20006;-51
2024/04/22 08:06:40;;;;;;;7.07;4.13;;;9.20;99.90;;;;;;5415191;26;20440;-50
2024/04/22 08:09:06;;;;;;;6.77;4.07;;;9.20;99.90;;;;;;5414626;26;20054;-51
2024/04/22 08:11:32;;;;;;;7.47;4.30;;;9.10;99.90;;;;;;5415310;26;20068;-50
2024/04/22 08:13:58;;;;;;;6.93;3.70;;;9.10;99.90;;;;;;5383681;26;19991;-51
2024/04/22 08:16:24;;;;;;;5.57;3.70;;;9.10;99.90;;;;;;5415261;26;20356;-51
2024/04/22 08:18:50;;;;;;;6.33;3.23;;;9.00;99.90;;;;;;5414363;26;20000;-51
2024/04/22 08:21:16;;;;;;;8.50;4.10;;;9.20;99.90;;;;;;5414761;26;19992;-51
2024/04/22 08:23:43;;;;;;;6.80;3.33;;;9.20;99.90;;;;;;5415076;26;20033;-47
2024/04/22 08:26:09;;;;;;;9.77;4.03;;;9.40;99.90;;;;;;5415082;26;19992;-51
2024/04/22 08:28:35;;;;;;;6.97;4.07;;;9.40;99.90;;;;;;5414159;26;20031;-51
2024/04/22 08:31:06;;;;;;;8.93;5.43;;;9.60;99.90;;;;;;5414954;26;20061;-51
2024/04/22 08:33:32;;;;;;;8.83;4.73;;;9.60;99.90;;;;;;5414835;26;19992;-49
2024/04/22 08:35:59;;;;;;;11.07;5.27;;;9.70;99.90;;;;;;5414938;26;20068;-51
2024/04/22 08:38:25;;;;;;;14.40;5.27;;;9.40;99.90;;;;;;5414756;26;19995;-51
2024/04/22 08:40:52;;;;;;;9.50;5.03;;;9.20;99.90;;;;;;5414238;26;20011;-49
2024/04/22 08:43:19;;;;;;;8.73;4.70;;;9.00;99.90;;;;;;5414895;26;19995;-48
2024/04/22 08:45:47;;;;;;;8.47;5.07;;;8.80;99.90;;;;;;5414801;26;20045;-50
2024/04/22 08:48:13;;;;;;;10.83;4.90;;;8.50;99.90;;;;;;5414742;26;20364;-49
2024/04/22 08:50:40;;;;;;;8.27;4.70;;;8.50;99.90;;;;;;5413829;26;20069;-50
2024/04/22 08:53:09;;;;;;;8.50;4.93;;;8.40;99.90;;;;;;5414674;26;20422;-47
2024/04/22 08:55:36;;;;;;;7.57;4.50;;;8.40;99.90;;;;;;5414587;26;19995;-50
2024/04/22 08:58:04;;;;;;;8.77;4.37;;;8.50;99.90;;;;;;5414065;26;20026;-49
2024/04/22 09:00:31;;;;;;;6.17;3.60;;;8.70;99.90;;;;;;5413637;26;19996;-48
2024/04/22 09:02:57;;;;;;;6.63;3.63;;;9.10;99.90;;;;;;5414551;26;19995;-50
2024/04/22 09:05:23;;;;;;;6.07;2.97;;;9.40;99.90;;;;;;5414564;26;20003;-49
2024/04/22 09:08:03;;;;;;;6.80;3.17;;;9.60;99.90;;;;;;5417751;26;19995;-49
2024/04/22 09:10:31;;;;;;;8.20;3.83;;;9.80;99.90;;;;;;5415488;26;19999;-51
2024/04/22 09:12:58;;;;;;;3.87;2.57;;;9.90;99.90;;;;;;5418107;26;20073;-52
2024/04/22 09:15:25;;;;;;;5.50;2.80;;;10.00;99.90;;;;;;5417892;26;20065;-50
2024/04/22 09:17:51;;;;;;;4.70;2.90;;;10.00;99.90;;;;;;5417937;26;20329;-50
2024/04/22 09:20:21;;;;;;;4.47;2.50;;;10.10;99.90;;;;;;5416937;26;19999;-48
2024/04/22 09:22:47;;;;;;;5.17;2.60;;;10.20;99.90;;;;;;5418097;26;20333;-51
2024/04/22 09:25:14;;;;;;;6.27;3.10;;;10.20;99.90;;;;;;5418131;26;20487;-47
2024/04/22 09:27:45;;;;;;;4.13;2.47;;;10.10;99.90;;;;;;5416656;26;19995;-51
2024/04/22 09:30:13;;;;;;;3.83;2.20;;;9.90;99.90;;;;;;5416887;26;20414;-51
2024/04/22 09:32:44;;;;;;;4.13;2.00;;;9.80;99.90;;;;;;5417671;26;20064;-47
2024/04/22 09:35:15;;;;;;;4.97;2.30;;;9.80;99.90;;;;;;5417528;26;19996;-48
2024/04/22 09:37:45;;;;;;;3.47;2.30;;;9.80;99.90;;;;;;5417813;26;20073;-51
2024/04/22 09:40:12;;;;;;;4.10;2.60;;;9.80;99.90;;;;;;5416800;26;20333;-49
2024/04/22 09:42:45;;;;;;;5.70;2.70;;;9.90;99.90;;;;;;5417897;26;19999;-51
2024/04/22 09:45:13;;;;;;;5.23;2.70;;;9.90;99.90;;;;;;5417708;26;19999;-51
2024/04/22 09:47:41;;;;;;;4.10;2.50;;;9.80;99.90;;;;;;5416282;26;20011;-50
2024/04/22 09:50:10;;;;;;;5.30;2.60;;;9.70;99.90;;;;;;5416535;26;19991;-51
2024/04/22 09:52:38;;;;;;;4.57;2.30;;;9.70;99.90;;;;;;5386117;26;20402;-51
2024/04/22 09:55:05;;;;;;;6.27;2.73;;;9.60;99.90;;;;;;5417360;26;19999;-51
2024/04/22 09:57:41;;;;;;;6.67;2.30;;;9.40;99.90;;;;;;5415837;26;20041;-51
2024/04/22 10:00:11;;;;;;;5.90;2.43;;;9.40;99.90;;;;;;5416584;26;20042;-51
2024/04/22 10:02:37;;;;;;;5.93;2.97;;;9.30;99.90;;;;;;5417353;26;20000;-47
2024/04/22 10:05:13;;;;;;;6.17;2.70;;;9.40;99.90;;;;;;5417327;26;20000;-50
2024/04/22 10:07:40;;;;;;;6.17;2.27;;;9.40;99.90;;;;;;5417285;26;20007;-46
2024/04/22 10:10:09;;;;;;;5.80;2.40;;;9.50;99.90;;;;;;5416164;26;20072;-51
2024/04/22 10:12:35;;;;;;;;;;;9.50;99.90;;;;;;5417907;26;20441;-47
2024/04/22 10:15:05;;;;;;;5.37;2.40;;;9.50;99.90;;;;;;5417185;26;19932;-48
2024/04/22 10:17:33;;;;;;;6.30;2.70;;;9.60;99.90;;;;;;5384961;26;20000;-50
2024/04/22 10:20:02;;;;;;;5.27;2.50;;;9.50;99.90;;;;;;5416043;26;20433;-47
2024/04/22 10:22:38;;;;;;;4.77;2.00;;;9.50;99.90;;;;;;5417048;26;19996;-50
2024/04/22 10:25:11;;;;;;;3.63;2.17;;;9.60;99.90;;;;;;5417125;26;20003;-48
2024/04/22 10:27:39;;;;;;;4.90;2.30;;;9.60;99.90;;;;;;5416962;26;20067;-49
2024/04/22 10:30:06;;;;;;;4.10;1.87;;;9.50;99.90;;;;;;5416011;26;20030;-48
2024/04/22 10:32:32;;;;;;;8.73;2.73;;;9.40;99.90;;;;;;5417208;26;20530;-50
2024/04/22 10:34:58;;;;;;;5.57;3.03;;;9.50;99.90;;;;;;5417212;26;20027;-48
2024/04/22 10:37:25;;;;;;;5.80;3.70;;;9.40;99.90;;;;;;5416733;26;20076;-51
2024/04/22 10:39:51;;;;;;;6.80;3.30;;;9.30;99.90;;;;;;5416086;26;20010;-51
2024/04/22 10:42:17;;;;;;;7.90;3.83;;;9.10;99.90;;;;;;5416869;26;20448;-51
2024/04/22 10:44:47;;;;;;;6.37;3.93;;;9.00;99.90;;;;;;5416754;26;20008;-51
2024/04/22 10:47:13;;;;;;;;;;;9.00;99.90;;;;;;5417453;26;19996;-51
2024/04/22 10:49:41;;;;;;;6.13;3.20;;;9.10;99.90;;;;;;5415899;26;19925;-46
2024/04/22 10:52:07;;;;;;;6.53;3.90;;;9.10;99.90;;;;;;5385707;26;20065;-51
2024/04/22 10:54:33;;;;;;;6.17;2.80;;;9.00;99.90;;;;;;5416683;26;20054;-51
2024/04/22 10:57:00;;;;;;;5.37;2.73;;;9.10;99.90;;;;;;5416692;26;20011;-48
2024/04/22 10:59:26;;;;;;;4.60;2.70;;;9.10;99.90;;;;;;5415907;26;20027;-50
2024/04/22 11:01:52;;;;;;;7.23;2.73;;;9.10;99.90;;;;;;5415554;26;20313;-50
2024/04/22 11:04:19;;;;;;;3.87;2.70;;;9.30;99.90;;;;;;5417183;26;20068;-49
2024/04/22 11:06:45;;;;;;;4.97;2.83;;;9.60;99.90;;;;;;5385092;26;19992;-49
2024/04/22 11:09:12;;;;;;;3.50;2.10;;;9.90;99.90;;;;;;5416033;26;19999;-50
2024/04/22 11:11:38;;;;;;;4.20;2.17;;;10.00;99.90;;;;;;5416163;26;20068;-45
2024/04/22 11:14:05;;;;;;;3.93;2.30;;;10.30;99.90;;;;;;5414636;26;19995;-50
2024/04/22 11:16:31;;;;;;;4.33;2.13;;;10.20;99.90;;;;;;5416439;26;20007;-48
2024/04/22 11:19:01;;;;;;;5.37;2.30;;;10.10;99.90;;;;;;5415424;26;19995;-49
2024/04/22 11:21:29;;;;;;;4.03;2.17;;;10.10;99.90;;;;;;5416699;26;19996;-50
2024/04/22 11:23:55;;;;;;;6.20;2.40;;;10.20;99.90;;;;;;5416222;26;20412;-48
2024/04/22 11:26:22;;;;;;;5.63;3.00;;;10.30;99.90;;;;;;5384740;26;19996;-50
2024/04/22 11:28:51;;;;;;;3.13;2.30;;;10.50;99.90;;;;;;5413891;26;19995;-46
2024/04/22 11:31:18;;;;;;;3.72;2.45;;;10.60;99.90;;;;;;5416252;26;20003;-50
2024/04/22 11:33:47;;;;;;;4.83;3.50;;;10.70;99.90;;;;;;5415227;26;20387;-50
2024/04/22 11:36:14;;;;;;;5.35;3.10;;;10.60;99.90;;;;;;5415978;26;19995;-50
2024/04/22 11:38:40;;;;;;;5.97;2.83;;;10.80;99.90;;;;;;5415387;26;19991;-50
2024/04/22 11:41:07;;;;;;;5.87;3.07;;;10.90;99.90;;;;;;5414921;26;20058;-49
2024/04/22 11:43:33;;;;;;;5.85;2.97;;;11.00;99.90;;;;;;5415951;26;20072;-50
2024/04/22 11:46:00;;;;;;;5.97;3.10;;;11.20;99.90;;;;;;5383723;26;19992;-48
2024/04/22 11:48:26;;;;;;;4.93;3.65;;;11.40;99.90;;;;;;5415735;26;19991;-50
2024/04/22 11:50:53;;;;;;;6.03;3.20;;;11.40;99.90;;;;;;5415184;26;20025;-51
2024/04/22 11:53:19;;;;;;;9.25;3.20;;;11.50;99.90;;;;;;5415659;26;19995;-50
2024/04/22 11:55:46;;;;;;;14.10;3.58;;;11.70;99.90;;;;;;5415697;26;20349;-49
2024/04/22 11:58:12;;;;;;;8.70;4.13;;;11.80;99.90;;;;;;5415903;26;20006;-49
2024/04/22 12:00:39;;;;;;;10.18;5.22;;;11.60;99.90;;;;;;5382441;26;20003;-46
2024/04/22 12:03:06;;;;;;;12.30;3.88;;;11.40;99.90;;;;;;5415674;26;20440;-46
2024/04/22 12:05:32;;;;;;;7.05;3.90;;;11.00;99.90;;;;;;5415439;26;20069;-50
2024/04/22 12:07:58;;;;;;;8.57;3.83;;;10.60;99.90;;;;;;5384260;26;19995;-50
2024/04/22 12:10:24;;;;;;;7.97;3.80;;;10.40;99.90;;;;;;5414562;26;19992;-48
2024/04/22 12:12:50;;;;;;;8.20;3.70;;;10.30;99.90;;;;;;5414221;26;19991;-50
2024/04/22 12:15:18;;;;;;;6.00;3.50;;;10.00;99.90;;;;;;5414452;26;19991;-50
2024/04/22 12:17:44;;;;;;;5.50;3.20;;;9.60;99.90;;;;;;5456296;21;20010;-48
2024/04/22 12:20:12;;;;;;;7.20;3.60;;;9.20;99.90;;;;;;5450379;26;20332;-49
2024/04/22 12:22:38;;;;;;;6.40;4.30;;;8.70;99.90;;;;;;5451328;26;19995;-48
2024/04/22 12:25:04;;;;;;;4.53;2.70;;;8.10;99.90;;;;;;5449504;26;20027;-49
2024/04/22 12:27:30;;;;;;;5.20;2.43;;;7.70;99.90;;;;;;5451352;26;20440;-47
2024/04/22 12:29:57;;;;;;;6.07;3.00;;;7.40;99.90;;;;;;5450258;26;20444;-46
2024/04/22 12:32:23;;;;;;;5.83;2.60;;;7.10;99.90;;;;;;5419244;26;20067;-48
2024/04/22 12:34:49;;;;;;;5.77;3.20;;;6.90;99.90;;;;;;5449329;26;20500;-46
2024/04/22 12:37:15;;;;;;;5.10;2.60;;;6.70;99.90;;;;;;5448999;26;19998;-48
2024/04/22 12:39:41;;;;;;;5.83;2.70;;;6.70;99.90;;;;;;5450029;26;19991;-47
2024/04/22 12:42:07;;;;;;;5.03;2.03;;;6.60;99.90;;;;;;5454362;26;20001;-48
2024/04/22 12:44:33;;;;;;;4.80;2.60;;;6.60;99.90;;;;;;5454457;26;20439;-48
2024/04/22 12:52:29;;;;;;;4.93;3.10;;;6.60;99.90;;;;;;5454438;26;20003;-46
2024/04/22 12:54:55;;;;;;;4.70;3.10;;;6.60;99.90;;;;;;5454367;26;20067;-46
2024/04/22 12:57:21;;;;;;;6.53;3.47;;;6.70;99.90;;;;;;5454318;26;19995;-47
2024/04/22 12:59:47;;;;;;;5.13;3.27;;;6.70;99.90;;;;;;5453382;26;20071;-49
2024/04/22 13:02:13;;;;;;;9.40;3.57;;;6.60;99.90;;;;;;5454469;26;20324;-46
2024/04/22 13:04:39;;;;;;;6.43;4.60;;;6.60;99.90;;;;;;5452191;26;20064;-47